createdAt,value
2018-01-17T00:00:42.629Z,2.66
2018-01-17T00:03:10.953Z,2.51
2018-01-17T00:05:39.377Z,2.48
2018-01-17T00:08:07.769Z,2.56
2018-01-17T00:10:36.085Z,2.55
2018-01-17T00:13:04.452Z,2.58
2018-01-17T00:15:34.666Z,2.62
2018-01-17T00:18:03.819Z,2.63
2018-01-17T00:20:32.145Z,2.64
2018-01-17T00:23:01.257Z,2.61
2018-01-17T00:25:29.613Z,2.62
2018-01-17T00:27:58.717Z,2.63
2018-01-17T00:30:27.842Z,2.63
2018-01-17T00:32:56.201Z,2.67
2018-01-17T00:35:25.314Z,2.68
2018-01-17T00:37:53.664Z,2.68
2018-01-17T00:40:22.760Z,2.65
2018-01-17T00:42:51.145Z,2.54
2018-01-17T00:45:19.493Z,2.39
2018-01-17T00:47:47.864Z,2.24
2018-01-17T00:50:16.176Z,2.21
2018-01-17T00:52:44.612Z,2.05
2018-01-17T00:55:12.957Z,2.31
2018-01-17T00:57:41.324Z,2.35
2018-01-17T01:00:09.676Z,2.39
2018-01-17T01:02:38.848Z,2.34
2018-01-17T01:05:07.192Z,2.24
2018-01-17T01:07:35.552Z,2.13
2018-01-17T01:10:03.944Z,2.14
2018-01-17T01:12:32.268Z,2.17
2018-01-17T01:15:01.460Z,2.18
2018-01-17T01:17:29.784Z,2.17
2018-01-17T01:19:58.112Z,2.12
2018-01-17T01:22:26.480Z,1.97
2018-01-17T01:24:55.012Z,1.84
2018-01-17T01:27:23.480Z,1.77
2018-01-17T01:29:52.669Z,1.75
2018-01-17T01:32:21.421Z,1.79
2018-01-17T01:34:49.793Z,1.80
2018-01-17T01:37:18.185Z,1.81
2018-01-17T01:39:46.557Z,1.89
2018-01-17T01:42:15.145Z,1.98
2018-01-17T01:44:43.545Z,2.01
2018-01-17T01:47:11.977Z,2.09
2018-01-17T01:49:40.553Z,2.16
2018-01-17T01:52:08.917Z,2.21
2018-01-17T01:54:37.308Z,2.24
2018-01-17T01:57:05.665Z,2.26
2018-01-17T01:59:34.825Z,2.32
2018-01-17T02:02:03.185Z,2.33
2018-01-17T02:04:31.564Z,2.35
2018-01-17T02:06:59.896Z,2.35
2018-01-17T02:09:28.995Z,2.41
2018-01-17T02:11:57.368Z,2.44
2018-01-17T02:14:26.512Z,2.49
2018-01-17T02:16:54.911Z,2.49
2018-01-17T02:19:23.277Z,2.49
2018-01-17T02:21:51.640Z,2.51
2018-01-17T02:24:20.011Z,2.50
2018-01-17T02:26:48.324Z,2.55
2018-01-17T02:29:17.431Z,2.54
2018-01-17T02:31:45.787Z,2.56
2018-01-17T02:34:14.107Z,2.59
2018-01-17T02:36:42.472Z,2.60
2018-01-17T02:39:13.482Z,2.60
2018-01-17T02:41:41.856Z,2.56
2018-01-17T02:44:10.202Z,2.52
2018-01-17T02:46:39.692Z,2.49
2018-01-17T02:49:08.812Z,2.43
2018-01-17T02:51:37.160Z,2.33
2018-01-17T02:54:05.535Z,2.23
2018-01-17T02:56:34.609Z,2.10
2018-01-17T02:59:03.723Z,1.95
2018-01-17T03:01:32.839Z,1.82
2018-01-17T03:04:01.199Z,1.71
2018-01-17T03:06:29.600Z,1.56
2018-01-17T03:08:58.172Z,1.43
2018-01-17T03:11:26.487Z,1.33
2018-01-17T03:13:54.859Z,1.25
2018-01-17T03:16:23.599Z,1.20
2018-01-17T03:18:51.963Z,1.11
2018-01-17T03:21:21.115Z,1.03
2018-01-17T03:23:49.615Z,0.90
2018-01-17T03:26:18.020Z,0.95
2018-01-17T03:28:47.162Z,0.86
2018-01-17T03:31:15.532Z,0.82
2018-01-17T03:33:43.854Z,0.82
2018-01-17T03:36:12.219Z,0.80
2018-01-17T03:38:40.567Z,0.76
2018-01-17T03:41:08.996Z,0.62
2018-01-17T03:43:37.388Z,0.47
2018-01-17T03:46:06.576Z,0.50
2018-01-17T03:48:35.744Z,0.49
2018-01-17T03:51:04.148Z,0.44
2018-01-17T03:53:32.537Z,0.52
2018-01-17T03:56:01.713Z,0.40
2018-01-17T03:58:30.084Z,0.48
2018-01-17T04:00:58.507Z,0.51
2018-01-17T04:03:26.928Z,0.52
2018-01-17T04:05:55.332Z,0.44
2018-01-17T04:08:23.752Z,0.49
2018-01-17T04:10:52.879Z,0.39
2018-01-17T04:13:22.031Z,0.30
2018-01-17T04:15:50.366Z,0.30
2018-01-17T04:18:18.734Z,0.30
2018-01-17T04:20:47.051Z,0.29
2018-01-17T04:23:15.786Z,0.26
2018-01-17T04:25:44.151Z,0.23
2018-01-17T04:28:12.510Z,0.14
2018-01-17T04:30:40.874Z,0.14
2018-01-17T04:33:10.638Z,0.05
2018-01-17T04:35:39.734Z,0.05
2018-01-17T04:38:08.062Z,0.02
2018-01-17T04:40:36.451Z,0.04
2018-01-17T04:43:05.227Z,0.08
2018-01-17T04:45:34.370Z,0.10
2018-01-17T04:48:02.738Z,0.12
2018-01-17T04:50:31.198Z,0.08
2018-01-17T04:52:59.522Z,0.09
2018-01-17T04:55:27.846Z,0.12
2018-01-17T04:57:56.606Z,0.17
2018-01-17T05:00:24.962Z,0.21
2018-01-17T05:02:53.507Z,0.25
2018-01-17T05:05:22.246Z,0.34
2018-01-17T05:07:50.610Z,0.34
2018-01-17T05:10:19.719Z,0.36
2018-01-17T05:12:48.086Z,0.44
2018-01-17T05:15:16.455Z,0.54
2018-01-17T05:17:44.989Z,0.68
2018-01-17T05:20:13.302Z,0.78
2018-01-17T05:22:41.640Z,0.80
2018-01-17T05:25:10.082Z,0.80
2018-01-17T05:27:38.406Z,0.88
2018-01-17T05:30:06.770Z,0.89
2018-01-17T05:32:35.866Z,0.88
2018-01-17T05:35:04.966Z,0.87
2018-01-17T05:37:33.330Z,0.82
2018-01-17T05:40:02.066Z,0.86
2018-01-17T05:42:30.389Z,0.78
2018-01-17T05:44:59.526Z,0.70
2018-01-17T05:47:27.849Z,0.61
2018-01-17T05:49:57.829Z,0.46
2018-01-17T05:52:26.238Z,0.40
2018-01-17T05:54:55.386Z,0.32
2018-01-17T05:57:23.746Z,0.29
2018-01-17T05:59:52.470Z,0.40
2018-01-17T06:02:20.842Z,0.42
2018-01-17T06:04:49.556Z,0.49
2018-01-17T06:07:17.920Z,0.40
2018-01-17T06:09:46.237Z,0.41
2018-01-17T06:12:15.742Z,0.53
2018-01-17T06:14:44.513Z,0.57
2018-01-17T06:17:12.833Z,0.56
2018-01-17T06:19:41.189Z,0.61
2018-01-17T06:22:09.898Z,0.67
2018-01-17T06:24:38.650Z,0.84
2018-01-17T06:27:07.366Z,0.84
2018-01-17T06:29:36.334Z,0.85
2018-01-17T06:32:05.099Z,0.72
2018-01-17T06:34:33.425Z,0.68
2018-01-17T06:37:01.758Z,0.64
2018-01-17T06:39:30.122Z,0.61
2018-01-17T06:41:58.453Z,0.68
2018-01-17T06:44:27.584Z,0.77
2018-01-17T06:46:55.926Z,1.01
2018-01-17T06:49:25.226Z,1.25
2018-01-17T06:51:53.977Z,1.33
2018-01-17T06:54:22.353Z,1.33
2018-01-17T06:56:50.765Z,1.21
2018-01-17T06:59:19.189Z,1.09
2018-01-17T07:01:47.526Z,0.92
2018-01-17T07:04:15.873Z,0.85
2018-01-17T07:06:45.105Z,1.04
2018-01-17T07:09:14.245Z,1.20
2018-01-17T07:11:43.349Z,1.19
2018-01-17T07:14:13.229Z,1.05
2018-01-17T07:16:42.402Z,1.00
2018-01-17T07:19:11.122Z,0.85
2018-01-17T07:21:39.477Z,0.68
2018-01-17T07:24:07.793Z,0.56
2018-01-17T07:26:36.533Z,0.52
2018-01-17T07:29:05.341Z,0.45
2018-01-17T07:31:34.459Z,0.37
2018-01-17T07:34:02.841Z,0.32
2018-01-17T07:36:31.193Z,0.40
2018-01-17T07:39:00.333Z,0.62
2018-01-17T07:41:28.685Z,0.82
2018-01-17T07:43:57.969Z,1.01
2018-01-17T07:46:26.341Z,1.20
2018-01-17T07:48:55.429Z,1.37
2018-01-17T07:51:23.793Z,1.52
2018-01-17T07:53:52.125Z,1.63
2018-01-17T07:56:20.504Z,1.75
2018-01-17T07:58:48.848Z,1.84
2018-01-17T08:01:17.201Z,1.95
2018-01-17T08:03:45.562Z,2.08
2018-01-17T08:06:14.665Z,2.20
2018-01-17T08:08:43.793Z,2.26
2018-01-17T08:11:12.921Z,2.35
2018-01-17T08:13:41.251Z,2.36
2018-01-17T08:16:09.621Z,2.42
2018-01-17T08:18:38.365Z,2.48
2018-01-17T08:21:06.749Z,2.49
2018-01-17T08:23:35.143Z,2.50
2018-01-17T08:26:04.281Z,2.60
2018-01-17T08:28:32.640Z,2.71
2018-01-17T08:31:01.373Z,2.75
2018-01-17T08:33:29.695Z,2.64
2018-01-17T08:35:58.453Z,2.70
2018-01-17T08:38:26.795Z,2.83
2018-01-17T08:40:55.150Z,2.86
2018-01-17T08:43:23.474Z,2.80
2018-01-17T08:45:51.830Z,2.96
2018-01-17T08:48:20.195Z,2.94
2018-01-17T08:50:48.555Z,3.09
2018-01-17T08:53:16.882Z,3.23
2018-01-17T08:55:45.201Z,3.24
2018-01-17T08:58:14.321Z,3.30
2018-01-17T09:00:42.661Z,3.30
2018-01-17T09:03:11.821Z,3.35
2018-01-17T09:05:40.129Z,3.41
2018-01-17T09:08:09.255Z,3.88
2018-01-17T09:10:37.581Z,3.76
2018-01-17T09:13:06.362Z,3.83
2018-01-17T09:15:34.710Z,4.38
2018-01-17T09:18:03.029Z,4.30
2018-01-17T09:20:31.416Z,3.90
2018-01-17T09:22:59.769Z,4.11
2018-01-17T09:25:28.102Z,3.78
2018-01-17T09:27:56.849Z,3.58
2018-01-17T09:30:25.582Z,3.50
2018-01-17T09:32:54.712Z,3.46
2018-01-17T09:35:23.036Z,3.71
2018-01-17T09:37:52.137Z,3.78
2018-01-17T09:40:21.245Z,3.76
2018-01-17T09:42:49.602Z,3.36
2018-01-17T09:45:18.759Z,3.66
2018-01-17T09:47:47.080Z,3.56
2018-01-17T09:50:16.154Z,3.38
2018-01-17T09:52:44.504Z,3.24
2018-01-17T09:55:12.822Z,3.08
2018-01-17T09:57:41.961Z,2.80
2018-01-17T10:00:10.337Z,2.81
2018-01-17T10:02:38.654Z,2.65
2018-01-17T10:05:06.977Z,2.50
2018-01-17T10:07:35.325Z,2.56
2018-01-17T10:10:04.436Z,2.64
2018-01-17T10:12:33.565Z,2.73
2018-01-17T10:15:01.900Z,2.60
2018-01-17T10:17:31.021Z,2.68
2018-01-17T10:19:59.368Z,2.75
2018-01-17T10:22:28.488Z,2.79
2018-01-17T10:24:56.848Z,2.63
2018-01-17T10:27:25.940Z,3.02
2018-01-17T10:29:55.072Z,2.99
2018-01-17T10:32:23.396Z,3.20
2018-01-17T10:34:51.736Z,3.17
2018-01-17T10:37:20.117Z,3.21
2018-01-17T10:39:48.454Z,3.04
2018-01-17T10:42:17.572Z,3.11
2018-01-17T10:44:45.962Z,2.74
2018-01-17T10:47:14.281Z,2.70
2018-01-17T10:49:42.600Z,2.91
2018-01-17T10:52:10.964Z,2.99
2018-01-17T10:54:39.284Z,3.01
2018-01-17T10:57:07.600Z,2.88
2018-01-17T10:59:36.776Z,2.92
2018-01-17T11:02:05.088Z,2.96
2018-01-17T11:04:33.456Z,2.76
2018-01-17T11:07:02.583Z,2.72
2018-01-17T11:09:30.913Z,2.81
2018-01-17T11:11:59.236Z,2.87
2018-01-17T11:14:27.604Z,2.92
2018-01-17T11:16:55.925Z,2.93
2018-01-17T11:19:24.300Z,2.98
2018-01-17T11:21:52.626Z,3.12
2018-01-17T11:24:20.964Z,3.13
2018-01-17T11:26:49.324Z,2.95
2018-01-17T11:29:17.720Z,2.98
2018-01-17T11:31:46.084Z,3.10
2018-01-17T11:34:14.407Z,3.18
2018-01-17T11:36:43.531Z,3.37
2018-01-17T11:39:11.868Z,3.52
2018-01-17T11:41:40.229Z,3.74
2018-01-17T11:44:08.548Z,3.68
2018-01-17T11:46:36.916Z,3.57
2018-01-17T11:49:05.297Z,3.56
2018-01-17T11:51:33.643Z,3.56
2018-01-17T11:54:01.956Z,3.61
2018-01-17T11:56:31.072Z,3.57
2018-01-17T11:58:59.391Z,3.47
2018-01-17T12:01:27.739Z,3.45
2018-01-17T12:03:56.415Z,3.47
2018-01-17T12:06:24.809Z,3.42
2018-01-17T12:08:53.101Z,3.44
2018-01-17T12:11:21.467Z,3.47
2018-01-17T12:13:49.787Z,3.34
2018-01-17T12:16:18.916Z,3.29
2018-01-17T12:18:47.280Z,3.31
2018-01-17T12:21:15.641Z,3.24
2018-01-17T12:23:44.723Z,3.20
2018-01-17T12:26:13.879Z,3.27
2018-01-17T12:28:42.246Z,3.42
2018-01-17T12:31:10.599Z,3.40
2018-01-17T12:33:38.920Z,3.35
2018-01-17T12:36:07.313Z,3.48
2018-01-17T12:38:35.644Z,3.47
2018-01-17T12:41:03.998Z,3.47
2018-01-17T12:43:33.160Z,3.48
2018-01-17T12:46:01.535Z,3.44
2018-01-17T12:48:29.859Z,3.46
2018-01-17T12:50:58.226Z,3.47
2018-01-17T12:53:27.319Z,3.43
2018-01-17T12:55:55.639Z,3.40
2018-01-17T12:58:23.995Z,3.44
2018-01-17T13:00:52.351Z,3.50
2018-01-17T13:03:21.475Z,3.44
2018-01-17T13:05:49.843Z,3.52
2018-01-17T13:08:18.199Z,3.55
2018-01-17T13:10:46.559Z,3.57
2018-01-17T13:13:14.867Z,3.59
2018-01-17T13:15:43.959Z,3.63
2018-01-17T13:18:13.058Z,3.57
2018-01-17T13:20:41.368Z,3.69
2018-01-17T13:23:09.731Z,3.73
2018-01-17T13:25:38.062Z,3.68
2018-01-17T13:28:07.147Z,3.55
2018-01-17T13:30:35.514Z,3.71
2018-01-17T13:33:03.839Z,3.88
2018-01-17T13:35:32.150Z,3.86
2018-01-17T13:38:00.524Z,3.92
2018-01-17T13:40:28.846Z,3.96
2018-01-17T13:42:57.166Z,4.10
2018-01-17T13:45:25.530Z,4.08
2018-01-17T13:47:53.890Z,3.89
2018-01-17T13:50:23.003Z,3.77
2018-01-17T13:52:51.322Z,3.80
2018-01-17T13:55:19.683Z,3.82
2018-01-17T13:57:48.031Z,3.89
2018-01-17T14:00:17.138Z,3.93
2018-01-17T14:02:45.498Z,3.89
2018-01-17T14:05:14.583Z,3.90
2018-01-17T14:07:43.715Z,3.96
2018-01-17T14:10:12.063Z,3.85
2018-01-17T14:12:41.186Z,3.89
2018-01-17T14:15:09.554Z,3.92
2018-01-17T14:17:37.874Z,3.93
2018-01-17T14:20:06.262Z,4.01
2018-01-17T14:22:34.639Z,3.86
2018-01-17T14:25:02.966Z,3.85
2018-01-17T14:27:31.330Z,3.84
2018-01-17T14:30:01.290Z,3.94
2018-01-17T14:32:29.658Z,3.85
2018-01-17T14:34:58.026Z,3.88
2018-01-17T14:37:26.359Z,3.80
2018-01-17T14:39:54.766Z,3.69
2018-01-17T14:42:23.090Z,3.65
2018-01-17T14:44:52.370Z,3.59
2018-01-17T14:47:20.714Z,3.76
2018-01-17T14:49:49.894Z,3.86
2018-01-17T14:52:19.026Z,3.88
2018-01-17T14:54:47.403Z,3.92
2018-01-17T14:57:15.767Z,3.84
2018-01-17T14:59:44.078Z,3.83
2018-01-17T15:02:12.427Z,3.62
2018-01-17T15:04:40.774Z,3.59
2018-01-17T15:07:09.908Z,3.69
2018-01-17T15:09:38.286Z,3.59
2018-01-17T15:12:06.601Z,3.59
2018-01-17T15:14:34.933Z,3.58
2018-01-17T15:17:03.290Z,3.57
2018-01-17T15:19:32.399Z,3.53
2018-01-17T15:22:00.787Z,3.47
2018-01-17T15:24:29.998Z,3.42
2018-01-17T15:26:59.334Z,3.38
2018-01-17T15:29:27.684Z,3.33
2018-01-17T15:31:56.009Z,3.33
2018-01-17T15:34:25.169Z,3.33
2018-01-17T15:36:53.489Z,3.32
2018-01-17T15:39:22.573Z,3.21
2018-01-17T15:41:50.942Z,3.19
2018-01-17T15:44:19.310Z,3.27
2018-01-17T15:46:47.841Z,3.29
2018-01-17T15:49:16.202Z,3.22
2018-01-17T15:51:45.319Z,3.31
2018-01-17T15:54:14.349Z,3.25
2018-01-17T15:56:42.683Z,3.37
2018-01-17T15:59:11.085Z,3.38
2018-01-17T16:01:39.438Z,3.38
2018-01-17T16:04:07.825Z,3.43
2018-01-17T16:06:36.137Z,3.27
2018-01-17T16:09:04.496Z,3.40
2018-01-17T16:11:32.857Z,3.35
2018-01-17T16:14:01.181Z,3.40
2018-01-17T16:16:29.546Z,3.28
2018-01-17T16:18:57.879Z,3.14
2018-01-17T16:21:26.265Z,3.15
2018-01-17T16:23:55.401Z,3.09
2018-01-17T16:26:23.722Z,2.97
2018-01-17T16:28:52.082Z,2.85
2018-01-17T16:31:20.443Z,2.70
2018-01-17T16:33:49.141Z,2.82
2018-01-17T16:36:18.300Z,2.83
2018-01-17T16:38:47.518Z,2.81
2018-01-17T16:41:15.834Z,2.75
2018-01-17T16:43:44.201Z,2.86
2018-01-17T16:46:13.313Z,2.95
2018-01-17T16:48:41.813Z,3.06
2018-01-17T16:51:10.226Z,3.12
2018-01-17T16:53:38.568Z,3.04
2018-01-17T16:56:06.996Z,2.96
2018-01-17T16:58:35.972Z,2.91
2018-01-17T17:01:04.361Z,2.89
2018-01-17T17:03:33.789Z,2.87
2018-01-17T17:06:02.966Z,2.82
2018-01-17T17:08:31.435Z,2.84
2018-01-17T17:10:59.761Z,2.83
2018-01-17T17:13:28.093Z,2.80
2018-01-17T17:15:56.487Z,2.78
2018-01-17T17:18:24.897Z,2.78
2018-01-17T17:20:53.234Z,2.80
2018-01-17T17:23:21.661Z,2.83
2018-01-17T17:25:50.457Z,2.88
2018-01-17T17:28:20.347Z,2.94
2018-01-17T17:30:49.481Z,2.91
2018-01-17T17:33:19.182Z,2.90
2018-01-17T17:35:47.573Z,2.92
2018-01-17T17:38:15.916Z,2.91
2018-01-17T17:40:44.310Z,2.83
2018-01-17T17:43:13.105Z,2.85
2018-01-17T17:45:41.563Z,2.85
2018-01-17T17:48:09.905Z,2.82
2018-01-17T17:50:38.234Z,2.83
2018-01-17T17:53:07.365Z,2.83
2018-01-17T17:55:35.745Z,2.83
2018-01-17T17:58:04.641Z,2.77
2018-01-17T18:00:33.072Z,2.74
2018-01-17T18:03:01.431Z,2.73
2018-01-17T18:05:30.537Z,2.67
2018-01-17T18:07:58.949Z,2.71
2018-01-17T18:10:27.317Z,2.70
2018-01-17T18:12:55.719Z,2.73
2018-01-17T18:15:25.376Z,2.77
2018-01-17T18:17:53.746Z,2.78
2018-01-17T18:20:22.877Z,2.70
2018-01-17T18:22:51.244Z,2.70
2018-01-17T18:25:19.914Z,2.75
2018-01-17T18:27:48.289Z,2.76
2018-01-17T18:30:16.616Z,2.79
2018-01-17T18:32:44.940Z,2.85
2018-01-17T18:35:13.337Z,2.86
2018-01-17T18:37:42.612Z,2.89
2018-01-17T18:40:11.773Z,2.90
2018-01-17T18:42:40.134Z,2.89
2018-01-17T18:45:08.608Z,2.92
2018-01-17T18:47:38.088Z,2.95
2018-01-17T18:50:06.854Z,3.00
2018-01-17T18:52:36.427Z,2.99
2018-01-17T18:55:05.299Z,3.01
2018-01-17T18:57:33.648Z,3.03
2018-01-17T19:00:02.016Z,3.08
2018-01-17T19:02:30.520Z,3.08
2018-01-17T19:05:01.008Z,3.07
2018-01-17T19:07:30.172Z,3.11
2018-01-17T19:09:58.553Z,3.13
2018-01-17T19:12:26.876Z,3.13
2018-01-17T19:14:55.585Z,3.19
2018-01-17T19:17:23.981Z,3.19
2018-01-17T19:19:52.400Z,3.31
2018-01-17T19:22:21.663Z,3.34
2018-01-17T19:24:51.372Z,3.22
2018-01-17T19:27:19.740Z,3.28
2018-01-17T19:29:48.927Z,2.82
2018-01-17T19:32:18.404Z,2.54
2018-01-17T19:34:48.061Z,2.42
2018-01-17T19:37:16.449Z,2.19
2018-01-17T19:39:45.295Z,2.14
2018-01-17T19:42:14.133Z,2.10
2018-01-17T19:44:42.605Z,1.95
2018-01-17T19:47:10.964Z,1.92
2018-01-17T19:49:39.492Z,1.67
2018-01-17T19:52:09.227Z,1.51
2018-01-17T19:54:37.771Z,1.36
2018-01-17T19:57:07.183Z,1.27
2018-01-17T19:59:36.523Z,1.28
2018-01-17T20:02:05.024Z,1.40
2018-01-17T20:04:35.021Z,1.38
2018-01-17T20:07:03.631Z,1.35
2018-01-17T20:09:32.833Z,1.45
2018-01-17T20:12:01.391Z,1.48
2018-01-17T20:14:29.816Z,1.55
2018-01-17T20:16:58.289Z,1.61
2018-01-17T20:19:27.477Z,1.60
2018-01-17T20:21:58.876Z,1.64
2018-01-17T20:24:31.755Z,1.69
2018-01-17T20:27:00.403Z,1.73
2018-01-17T20:29:28.831Z,1.79
2018-01-17T20:31:57.256Z,1.81
2018-01-17T20:34:27.515Z,1.74
2018-01-17T20:36:56.123Z,1.82
2018-01-17T20:39:30.676Z,1.83
2018-01-17T20:41:59.031Z,1.84
2018-01-17T20:44:28.333Z,1.87
2018-01-17T20:46:58.641Z,1.87
2018-01-17T20:49:27.071Z,1.94
2018-01-17T20:51:55.472Z,1.97
2018-01-17T20:54:23.955Z,1.92
2018-01-17T20:56:53.111Z,1.95
2018-01-17T20:59:21.637Z,1.97
2018-01-17T21:01:50.804Z,2.01
2018-01-17T21:04:19.867Z,2.05
2018-01-17T21:06:49.092Z,2.17
2018-01-17T21:09:17.479Z,2.23
2018-01-17T21:11:45.824Z,2.29
2018-01-17T21:14:14.784Z,2.28
2018-01-17T21:16:43.211Z,2.40
2018-01-17T21:19:11.571Z,2.51
2018-01-17T21:21:40.470Z,2.43
2018-01-17T21:24:08.811Z,2.37
2018-01-17T21:26:37.363Z,2.38
2018-01-17T21:29:05.744Z,2.52
2018-01-17T21:31:34.123Z,2.50
2018-01-17T21:34:04.207Z,2.54
2018-01-17T21:36:32.631Z,2.52
2018-01-17T21:39:01.795Z,2.48
2018-01-17T21:41:30.115Z,2.56
2018-01-17T21:44:05.660Z,2.61
2018-01-17T21:46:36.390Z,2.56
2018-01-17T21:49:05.495Z,2.55
2018-01-17T21:51:33.871Z,2.56
2018-01-17T21:54:02.270Z,2.53
2018-01-17T21:56:30.679Z,2.51
2018-01-17T21:58:59.006Z,2.54
2018-01-17T22:01:27.346Z,2.54
2018-01-17T22:03:55.723Z,2.45
2018-01-17T22:06:24.099Z,2.52
2018-01-17T22:08:52.435Z,2.47
2018-01-17T22:11:20.791Z,2.51
2018-01-17T22:13:49.119Z,2.54
2018-01-17T22:16:17.499Z,2.52
2018-01-17T22:18:45.898Z,2.50
2018-01-17T22:21:14.630Z,2.43
2018-01-17T22:23:43.000Z,2.43
2018-01-17T22:26:11.382Z,2.49
2018-01-17T22:28:39.708Z,2.54
2018-01-17T22:31:08.070Z,2.60
2018-01-17T22:33:36.474Z,2.54
2018-01-17T22:36:05.610Z,2.53
2018-01-17T22:38:34.046Z,2.45
2018-01-17T22:41:02.407Z,2.48
2018-01-17T22:43:30.766Z,2.58
2018-01-17T22:45:59.092Z,2.52
2018-01-17T22:48:27.452Z,2.60
2018-01-17T22:50:55.782Z,2.59
2018-01-17T22:53:24.142Z,2.66
2018-01-17T22:55:53.274Z,2.67
2018-01-17T22:58:21.590Z,2.75
2018-01-17T23:00:49.970Z,2.68
2018-01-17T23:03:19.106Z,2.72
2018-01-17T23:05:47.490Z,2.74
2018-01-17T23:08:15.854Z,2.81
2018-01-17T23:10:44.170Z,2.86
2018-01-17T23:13:12.798Z,2.88
2018-01-17T23:15:41.882Z,2.94
2018-01-17T23:18:10.270Z,2.91
2018-01-17T23:20:39.355Z,2.98
2018-01-17T23:23:08.474Z,2.92
2018-01-17T23:25:36.853Z,2.98
2018-01-17T23:28:05.235Z,2.94
2018-01-17T23:30:33.551Z,2.98
2018-01-17T23:33:01.969Z,2.99
2018-01-17T23:35:31.862Z,2.98
2018-01-17T23:38:00.221Z,2.98
2018-01-17T23:40:28.581Z,2.94
2018-01-17T23:42:56.957Z,2.96
2018-01-17T23:45:25.342Z,3.02
2018-01-17T23:47:53.666Z,2.97
2018-01-17T23:50:22.021Z,3.00
2018-01-17T23:52:50.385Z,3.01
2018-01-17T23:55:18.727Z,3.05
2018-01-17T23:57:47.078Z,3.06
